Time;durP1;ratioP1;P1;durP2;ratioP2;P2;SDS_P1;SDS_P2;PMS_P1;PMS_P2;Temp;Humidity;BMP_temperature;BMP_pressure;BME280_temperature;BME280_humidity;BME280_pressure;Samples;Min_cycle;Max_cycle;Signal;HPM_P1;HPM_P2
2022/02/18 00:00:14;;;;;;;22.30;4.23;;;7.20;99.90;;;;;;5010578;28;20453;-77
2022/02/18 00:02:40;;;;;;;20.37;4.17;;;7.20;99.90;;;;;;5010321;28;20196;-77
2022/02/18 00:05:06;;;;;;;20.20;3.67;;;7.20;99.90;;;;;;5010828;28;20480;-77
2022/02/18 00:07:31;;;;;;;19.63;4.30;;;7.20;99.90;;;;;;5010522;28;20034;-77
2022/02/18 00:09:57;;;;;;;16.63;3.70;;;7.20;99.90;;;;;;5010630;28;20061;-78
2022/02/18 00:12:22;;;;;;;18.10;3.67;;;7.10;99.90;;;;;;5010748;28;20056;-77
2022/02/18 00:14:48;;;;;;;16.23;4.10;;;7.10;99.90;;;;;;5010184;28;20054;-78
2022/02/18 00:17:13;;;;;;;16.40;3.40;;;7.10;99.90;;;;;;5010513;28;20067;-77
2022/02/18 00:19:39;;;;;;;17.67;4.63;;;7.10;99.90;;;;;;5010323;28;20037;-77
2022/02/18 00:22:05;;;;;;;14.50;3.60;;;7.20;99.90;;;;;;4992831;28;20037;-76
2022/02/18 00:24:30;;;;;;;18.00;3.70;;;7.10;99.90;;;;;;5010144;28;20042;-76
2022/02/18 00:26:56;;;;;;;18.63;3.80;;;7.10;99.90;;;;;;5010404;28;20128;-76
2022/02/18 00:29:21;;;;;;;23.97;4.67;;;7.20;99.90;;;;;;5010227;28;20069;-76
2022/02/18 00:31:47;;;;;;;19.37;3.70;;;7.30;99.90;;;;;;5010280;28;20160;-77
2022/02/18 00:34:13;;;;;;;20.43;4.43;;;7.20;99.90;;;;;;5009958;28;20053;-77
2022/02/18 00:36:38;;;;;;;19.73;3.13;;;7.20;99.90;;;;;;4992425;28;20320;-76
2022/02/18 00:39:04;;;;;;;17.03;4.07;;;7.10;99.90;;;;;;5009985;28;20484;-77
2022/02/18 00:41:30;;;;;;;24.00;4.10;;;7.20;99.90;;;;;;4992954;28;20399;-77
2022/02/18 00:43:55;;;;;;;18.07;3.13;;;7.10;99.90;;;;;;5010408;28;20108;-77
2022/02/18 00:46:21;;;;;;;15.00;3.50;;;7.00;99.90;;;;;;5003897;28;20034;-77
2022/02/18 00:48:47;;;;;;;16.43;3.37;;;7.10;99.90;;;;;;4995148;28;20482;-77
2022/02/18 00:51:12;;;;;;;17.50;3.30;;;7.10;99.90;;;;;;5008004;28;20033;-77
2022/02/18 00:53:38;;;;;;;19.23;4.00;;;7.00;99.90;;;;;;5013974;28;20340;-77
2022/02/18 00:56:04;;;;;;;17.00;3.77;;;7.00;99.90;;;;;;5014271;28;20517;-77
2022/02/18 00:58:29;;;;;;;13.43;3.33;;;7.00;99.90;;;;;;5013967;28;20056;-78
2022/02/18 01:00:55;;;;;;;17.90;3.20;;;7.00;99.90;;;;;;5014153;28;20486;-78
2022/02/18 01:03:22;;;;;;;19.10;4.43;;;7.00;99.90;;;;;;5013910;28;20026;-78
2022/02/18 01:05:49;;;;;;;15.50;4.53;;;7.00;99.90;;;;;;5013718;28;20463;-78
2022/02/18 01:08:15;;;;;;;15.97;4.20;;;7.00;99.90;;;;;;5013736;28;20084;-78
2022/02/18 01:10:42;;;;;;;16.47;4.03;;;7.00;99.90;;;;;;5013971;28;20410;-78
2022/02/18 01:13:07;;;;;;;16.43;3.80;;;6.90;99.90;;;;;;5013622;28;20026;-78
2022/02/18 01:15:33;;;;;;;16.70;3.80;;;6.90;99.90;;;;;;5013508;28;20028;-78
2022/02/18 01:17:58;;;;;;;24.73;5.90;;;6.90;99.90;;;;;;5013614;28;20029;-78
2022/02/18 01:20:24;;;;;;;16.27;4.13;;;6.80;99.90;;;;;;5013536;28;20041;-78
2022/02/18 01:22:50;;;;;;;16.00;3.63;;;6.80;99.90;;;;;;5013645;28;20033;-78
2022/02/18 01:25:16;;;;;;;16.17;3.60;;;6.80;99.90;;;;;;5013474;28;20030;-76
2022/02/18 01:27:41;;;;;;;14.73;3.53;;;6.90;99.90;;;;;;5013493;28;20065;-77
2022/02/18 01:30:09;;;;;;;16.90;4.37;;;6.80;99.90;;;;;;5013836;28;20717;-76
2022/02/18 01:32:35;;;;;;;16.13;4.03;;;6.80;99.90;;;;;;5013740;28;20026;-77
2022/02/18 01:35:02;;;;;;;14.77;4.00;;;6.90;99.90;;;;;;5013364;28;20026;-77
2022/02/18 01:37:27;;;;;;;17.73;4.33;;;6.90;99.90;;;;;;4995597;28;20403;-77
2022/02/18 01:39:53;;;;;;;18.83;3.43;;;6.80;99.90;;;;;;5012958;28;20103;-77
2022/02/18 01:42:19;;;;;;;16.93;3.87;;;6.90;99.90;;;;;;5013255;28;20076;-77
2022/02/18 01:44:47;;;;;;;17.23;4.37;;;7.00;99.90;;;;;;5012966;28;20053;-77
2022/02/18 01:47:16;;;;;;;13.63;3.20;;;7.10;99.90;;;;;;5004608;28;20034;-77
2022/02/18 01:49:43;;;;;;;15.23;3.47;;;7.10;99.90;;;;;;4993086;28;20041;-77
2022/02/18 01:52:09;;;;;;;16.00;3.50;;;7.20;99.90;;;;;;4993517;28;20423;-78
2022/02/18 01:54:35;;;;;;;15.80;4.27;;;7.20;99.90;;;;;;4977160;28;20832;-77
2022/02/18 01:57:00;;;;;;;18.47;3.80;;;7.20;99.90;;;;;;5013151;28;20137;-77
2022/02/18 01:59:28;;;;;;;15.73;3.03;;;7.30;99.90;;;;;;5012569;28;20037;-77
2022/02/18 02:01:54;;;;;;;15.53;3.93;;;7.30;99.90;;;;;;5012969;28;20033;-77
2022/02/18 02:04:20;;;;;;;23.60;3.90;;;7.30;99.90;;;;;;5011982;28;20119;-77
2022/02/18 02:06:46;;;;;;;13.53;4.07;;;7.40;99.90;;;;;;4994926;28;20069;-77
2022/02/18 02:09:13;;;;;;;14.97;3.63;;;7.40;99.90;;;;;;5012353;28;20164;-78
2022/02/18 02:11:39;;;;;;;17.63;3.80;;;7.40;99.90;;;;;;5012807;28;20061;-78
2022/02/18 02:14:06;;;;;;;13.93;3.67;;;7.40;99.90;;;;;;5012479;28;20080;-78
2022/02/18 02:16:32;;;;;;;18.97;4.30;;;7.40;99.90;;;;;;4995011;28;20160;-78
2022/02/18 02:18:58;;;;;;;17.50;3.70;;;7.50;99.90;;;;;;4995045;28;20431;-78
2022/02/18 02:21:26;;;;;;;16.43;4.20;;;7.50;99.90;;;;;;5012760;28;20125;-78
2022/02/18 02:23:53;;;;;;;24.70;4.13;;;7.40;99.90;;;;;;4994649;28;20532;-78
2022/02/18 02:26:19;;;;;;;16.77;3.43;;;7.40;99.90;;;;;;5012640;28;20053;-78
2022/02/18 02:28:45;;;;;;;14.23;3.50;;;7.40;99.90;;;;;;5012029;28;20364;-78
2022/02/18 02:31:11;;;;;;;14.00;3.97;;;7.40;99.90;;;;;;5012551;28;20079;-78
2022/02/18 02:33:36;;;;;;;16.73;3.27;;;7.40;99.90;;;;;;4994469;28;20092;-78
2022/02/18 02:36:02;;;;;;;18.03;3.67;;;7.60;99.90;;;;;;5012280;28;20106;-78
2022/02/18 02:38:28;;;;;;;15.13;3.10;;;7.60;99.90;;;;;;5011992;28;20053;-78
2022/02/18 02:40:53;;;;;;;18.50;3.67;;;7.70;99.90;;;;;;5012280;28;20533;-78
2022/02/18 02:43:19;;;;;;;20.07;3.87;;;7.70;99.90;;;;;;5011771;28;20033;-78
2022/02/18 02:45:44;;;;;;;14.77;3.37;;;7.70;99.90;;;;;;5010483;28;20052;-78
2022/02/18 02:48:10;;;;;;;20.43;3.67;;;7.70;99.90;;;;;;5003242;28;20022;-78
2022/02/18 02:50:36;;;;;;;17.10;3.97;;;7.70;99.90;;;;;;5011930;28;20041;-78
2022/02/18 02:53:01;;;;;;;14.27;3.60;;;7.80;99.90;;;;;;5011935;28;20081;-78
2022/02/18 02:55:27;;;;;;;19.60;4.00;;;7.80;99.90;;;;;;5011765;28;20034;-78
2022/02/18 02:57:53;;;;;;;13.77;3.47;;;7.80;99.90;;;;;;4994042;28;20542;-78
2022/02/18 03:00:19;;;;;;;13.63;4.53;;;7.80;99.90;;;;;;5012146;28;20089;-77
2022/02/18 03:02:45;;;;;;;16.73;3.80;;;7.80;99.90;;;;;;5011544;28;20112;-77
2022/02/18 03:05:13;;;;;;;20.73;3.60;;;7.70;99.90;;;;;;5011581;28;20033;-76
2022/02/18 03:07:38;;;;;;;19.77;4.30;;;7.70;99.90;;;;;;5011577;28;20034;-77
2022/02/18 03:10:05;;;;;;;11.20;3.37;;;7.90;99.90;;;;;;5011611;28;20076;-77
2022/02/18 03:12:31;;;;;;;14.03;3.67;;;7.90;99.90;;;;;;5003613;28;20032;-77
2022/02/18 03:14:57;;;;;;;19.90;4.20;;;7.90;99.90;;;;;;5010787;28;20029;-77
2022/02/18 03:17:23;;;;;;;22.57;4.47;;;8.00;99.90;;;;;;5011516;28;20335;-77
2022/02/18 03:19:48;;;;;;;15.33;3.37;;;8.00;99.90;;;;;;5011488;28;20503;-77
2022/02/18 03:22:14;;;;;;;17.90;3.57;;;7.90;99.90;;;;;;5011270;28;20041;-77
2022/02/18 03:24:40;;;;;;;16.10;3.77;;;7.90;99.90;;;;;;5011198;28;20471;-77
2022/02/18 03:27:05;;;;;;;18.50;3.77;;;7.90;99.90;;;;;;5011327;28;20072;-77
2022/02/18 03:29:31;;;;;;;15.20;3.23;;;7.80;99.90;;;;;;5011151;28;20083;-77
2022/02/18 03:31:56;;;;;;;23.53;3.80;;;7.80;99.90;;;;;;5011118;28;20541;-77
2022/02/18 03:34:22;;;;;;;19.47;4.10;;;7.90;99.90;;;;;;5011113;28;20029;-77
2022/02/18 03:36:48;;;;;;;19.07;4.20;;;7.90;99.90;;;;;;5011290;28;20104;-77
2022/02/18 03:39:13;;;;;;;15.20;3.83;;;7.90;99.90;;;;;;5010857;28;20081;-77
2022/02/18 03:41:39;;;;;;;20.93;4.53;;;7.90;99.90;;;;;;5010798;28;20034;-77
2022/02/18 03:44:08;;;;;;;13.70;3.13;;;7.90;99.90;;;;;;4993329;28;20033;-77
2022/02/18 03:46:34;;;;;;;17.67;4.00;;;7.80;99.90;;;;;;5004843;28;20087;-76
2022/02/18 03:49:00;;;;;;;24.17;4.63;;;7.90;99.90;;;;;;4993587;28;20045;-78
2022/02/18 03:51:25;;;;;;;20.13;4.40;;;7.80;99.90;;;;;;4991900;28;20456;-78
2022/02/18 03:53:51;;;;;;;25.90;4.93;;;7.80;99.90;;;;;;4973460;28;20437;-78
2022/02/18 03:56:17;;;;;;;20.90;4.00;;;7.80;99.90;;;;;;4991224;28;20050;-78
2022/02/18 03:58:43;;;;;;;16.13;3.83;;;7.80;99.90;;;;;;4990997;28;20451;-76
2022/02/18 04:01:09;;;;;;;22.40;4.03;;;7.80;99.90;;;;;;4996225;28;20053;-76
2022/02/18 04:03:35;;;;;;;21.17;3.90;;;7.80;99.90;;;;;;5010365;28;20407;-78
2022/02/18 04:06:00;;;;;;;19.23;4.60;;;7.80;99.90;;;;;;5010632;28;20034;-77
2022/02/18 04:08:26;;;;;;;19.80;4.03;;;7.80;99.90;;;;;;5010541;28;20367;-77
2022/02/18 04:10:52;;;;;;;21.90;4.37;;;7.80;99.90;;;;;;5010562;28;20030;-77
2022/02/18 04:13:17;;;;;;;16.07;3.43;;;7.80;99.90;;;;;;5010230;28;20188;-77
2022/02/18 04:15:43;;;;;;;22.43;4.37;;;7.80;99.90;;;;;;5010674;28;20037;-77
2022/02/18 04:18:09;;;;;;;18.00;3.33;;;7.80;99.90;;;;;;5010425;28;20045;-77
2022/02/18 04:20:34;;;;;;;21.17;4.07;;;7.70;99.90;;;;;;5010676;28;20030;-77
2022/02/18 04:23:00;;;;;;;12.87;3.07;;;7.70;99.90;;;;;;5009982;28;20036;-77
2022/02/18 04:25:25;;;;;;;16.80;3.63;;;7.70;99.90;;;;;;5010533;28;20049;-78
2022/02/18 04:27:59;;;;;;;12.63;2.77;;;7.60;99.90;;;;;;5010251;28;20081;-78
2022/02/18 04:30:24;;;;;;;24.37;5.37;;;7.50;99.90;;;;;;5010431;28;20045;-78
2022/02/18 04:32:50;;;;;;;17.47;3.00;;;7.60;99.90;;;;;;5010079;28;20133;-78
2022/02/18 04:35:17;;;;;;;20.30;3.87;;;7.60;99.90;;;;;;5010218;28;20030;-78
2022/02/18 04:37:43;;;;;;;17.17;3.50;;;7.60;99.90;;;;;;5010377;28;20422;-76
2022/02/18 04:40:10;;;;;;;16.47;3.37;;;7.60;99.90;;;;;;5009991;28;20050;-77
2022/02/18 04:42:37;;;;;;;25.20;3.73;;;7.50;99.90;;;;;;4992301;28;20034;-78
2022/02/18 04:45:02;;;;;;;16.17;4.17;;;7.50;99.90;;;;;;5008560;28;20118;-78
2022/02/18 04:47:28;;;;;;;14.73;3.63;;;7.60;99.90;;;;;;4999109;28;20050;-78
2022/02/18 04:49:54;;;;;;;20.53;4.37;;;7.50;99.90;;;;;;5010175;28;20038;-78
2022/02/18 04:52:19;;;;;;;15.27;3.23;;;7.50;99.90;;;;;;5010183;28;20438;-78
2022/02/18 04:54:45;;;;;;;18.27;3.77;;;7.50;99.90;;;;;;5010180;28;20491;-78
2022/02/18 04:57:11;;;;;;;24.73;4.47;;;7.50;99.90;;;;;;5010440;28;20072;-77
2022/02/18 04:59:37;;;;;;;20.17;4.33;;;7.40;99.90;;;;;;5010599;28;20475;-78
2022/02/18 05:02:03;;;;;;;22.60;4.47;;;7.50;99.90;;;;;;5010985;28;20037;-78
2022/02/18 05:04:29;;;;;;;17.90;4.20;;;7.50;99.90;;;;;;5011001;28;20382;-78
2022/02/18 05:06:55;;;;;;;15.70;3.87;;;7.50;99.90;;;;;;5011014;28;20045;-78
2022/02/18 05:09:20;;;;;;;18.97;4.03;;;7.50;99.90;;;;;;5010815;28;20037;-78
2022/02/18 05:11:46;;;;;;;21.40;4.50;;;7.50;99.90;;;;;;5010885;28;20030;-79
2022/02/18 05:14:12;;;;;;;18.07;3.90;;;7.40;99.90;;;;;;5010674;28;20104;-79
2022/02/18 05:16:37;;;;;;;17.50;4.50;;;7.30;99.90;;;;;;5010128;28;20438;-79
2022/02/18 05:19:04;;;;;;;20.60;3.87;;;7.30;99.90;;;;;;5010050;28;20486;-79
2022/02/18 05:21:30;;;;;;;18.20;3.87;;;7.30;99.90;;;;;;5008104;28;20036;-79
2022/02/18 05:23:55;;;;;;;16.70;3.80;;;7.20;99.90;;;;;;5013378;28;20038;-79
2022/02/18 05:26:21;;;;;;;18.63;4.80;;;7.20;99.90;;;;;;5010340;28;20029;-79
2022/02/18 05:28:46;;;;;;;21.70;3.80;;;7.10;99.90;;;;;;5007756;28;20057;-79
2022/02/18 05:31:12;;;;;;;18.90;3.77;;;7.10;99.90;;;;;;5009465;28;20049;-79
2022/02/18 05:33:37;;;;;;;21.90;4.10;;;7.10;99.90;;;;;;4991729;28;20040;-77
2022/02/18 05:36:03;;;;;;;18.13;3.77;;;7.00;99.90;;;;;;5011901;28;20054;-77
2022/02/18 05:38:29;;;;;;;19.97;4.10;;;7.00;99.90;;;;;;4994726;28;20128;-77
2022/02/18 05:40:55;;;;;;;15.83;3.87;;;6.90;99.90;;;;;;5012592;28;20030;-78
2022/02/18 05:43:21;;;;;;;20.17;4.40;;;6.90;99.90;;;;;;5011753;28;20114;-78
2022/02/18 05:45:47;;;;;;;16.97;3.47;;;6.80;99.90;;;;;;4993759;28;20125;-78
2022/02/18 05:48:12;;;;;;;18.27;3.93;;;6.70;99.90;;;;;;4993218;28;20026;-78
2022/02/18 05:50:38;;;;;;;21.93;3.87;;;6.70;99.90;;;;;;5011943;28;20116;-78
2022/02/18 05:53:04;;;;;;;21.37;5.47;;;6.60;99.90;;;;;;5011446;28;20518;-79
2022/02/18 05:55:29;;;;;;;19.27;3.70;;;6.50;99.90;;;;;;5012138;28;20026;-78
2022/02/18 05:57:55;;;;;;;24.87;4.27;;;6.50;99.90;;;;;;5012115;28;20041;-78
2022/02/18 06:00:20;;;;;;;20.80;4.83;;;6.40;99.90;;;;;;5012667;28;20475;-76
2022/02/18 06:02:46;;;;;;;21.43;4.07;;;6.30;99.90;;;;;;5010569;28;20649;-76
2022/02/18 06:05:12;;;;;;;20.23;3.93;;;6.20;99.90;;;;;;5011820;28;20041;-76
2022/02/18 06:07:37;;;;;;;22.27;4.53;;;6.10;99.90;;;;;;5011922;28;20197;-76
2022/02/18 06:10:03;;;;;;;18.13;4.23;;;6.10;99.90;;;;;;5007462;28;20030;-76
2022/02/18 06:12:29;;;;;;;18.10;4.03;;;6.00;99.90;;;;;;5006151;28;20074;-75
2022/02/18 06:14:54;;;;;;;20.50;3.97;;;5.90;99.90;;;;;;4994970;28;20062;-76
2022/02/18 06:17:20;;;;;;;20.33;4.40;;;5.80;99.90;;;;;;5010816;28;20030;-76
2022/02/18 06:19:47;;;;;;;22.50;4.07;;;5.80;99.90;;;;;;5006370;28;20566;-76
2022/02/18 06:22:14;;;;;;;23.47;3.87;;;5.70;99.90;;;;;;4990895;28;20038;-77
2022/02/18 06:24:40;;;;;;;18.70;4.00;;;5.70;99.90;;;;;;5007090;28;20045;-77
2022/02/18 06:27:05;;;;;;;23.70;5.27;;;5.70;99.90;;;;;;5007595;28;20037;-77
2022/02/18 06:29:31;;;;;;;24.73;5.97;;;5.70;99.90;;;;;;5007534;28;20049;-77
2022/02/18 06:32:00;;;;;;;18.60;4.67;;;5.70;99.90;;;;;;5007826;28;20057;-77
2022/02/18 06:34:25;;;;;;;21.27;4.10;;;5.70;99.90;;;;;;5007553;28;20033;-77
2022/02/18 06:36:51;;;;;;;17.60;3.87;;;5.80;99.90;;;;;;5008412;28;20029;-77
2022/02/18 06:39:21;;;;;;;24.20;4.73;;;5.80;99.90;;;;;;5008041;28;20106;-77
2022/02/18 06:41:49;;;;;;;18.93;4.40;;;5.80;99.90;;;;;;5007662;28;20038;-77
2022/02/18 06:44:15;;;;;;;19.00;4.63;;;5.90;99.90;;;;;;5007746;28;20072;-77
2022/02/18 06:46:41;;;;;;;17.03;4.27;;;5.90;99.90;;;;;;5000520;28;20034;-77
2022/02/18 06:49:08;;;;;;;19.53;3.77;;;5.90;99.90;;;;;;4989262;28;20038;-77
2022/02/18 06:51:34;;;;;;;17.03;3.83;;;6.00;99.90;;;;;;5006093;28;20041;-77
2022/02/18 06:54:00;;;;;;;15.13;4.33;;;6.00;99.90;;;;;;5007219;28;20038;-77
2022/02/18 06:56:25;;;;;;;17.50;4.13;;;6.00;99.90;;;;;;5007257;28;20153;-77
2022/02/18 06:58:52;;;;;;;20.47;4.20;;;6.10;99.90;;;;;;5007607;28;20783;-77
2022/02/18 07:01:18;;;;;;;21.13;3.70;;;6.10;99.90;;;;;;5009930;28;20059;-77
2022/02/18 07:03:44;;;;;;;23.40;4.67;;;6.20;99.90;;;;;;5011357;28;20080;-77
2022/02/18 07:06:10;;;;;;;23.20;4.23;;;6.20;99.90;;;;;;5011591;28;20061;-77
2022/02/18 07:08:35;;;;;;;23.07;3.90;;;6.30;99.90;;;;;;4993511;28;20140;-77
2022/02/18 07:11:01;;;;;;;29.83;4.30;;;6.40;99.90;;;;;;5012956;28;20398;-76
2022/02/18 07:13:26;;;;;;;20.83;3.93;;;6.50;99.90;;;;;;5014337;28;20041;-76
2022/02/18 07:15:52;;;;;;;29.73;4.67;;;6.50;99.90;;;;;;5014336;28;20065;-76
2022/02/18 07:18:18;;;;;;;21.00;3.60;;;6.60;99.90;;;;;;5014308;28;20026;-76
2022/02/18 07:20:45;;;;;;;21.80;4.50;;;6.70;99.90;;;;;;5014228;28;20049;-76
2022/02/18 07:23:11;;;;;;;20.47;4.20;;;6.70;99.90;;;;;;5014493;28;20034;-76
2022/02/18 07:25:36;;;;;;;18.37;4.13;;;6.70;99.90;;;;;;5013959;28;20041;-74
2022/02/18 07:28:02;;;;;;;13.37;3.80;;;6.80;99.90;;;;;;5013869;28;20442;-75
2022/02/18 07:30:28;;;;;;;13.03;3.50;;;6.80;99.90;;;;;;5013841;28;20026;-75
2022/02/18 07:32:53;;;;;;;15.03;4.57;;;6.90;99.90;;;;;;5013792;28;20118;-75
2022/02/18 07:35:20;;;;;;;21.07;4.73;;;7.00;99.90;;;;;;5001010;28;20027;-85
2022/02/18 07:37:49;;;;;;;26.20;3.90;;;7.10;99.90;;;;;;4999505;28;20033;-85
2022/02/18 07:40:16;;;;;;;22.23;3.37;;;7.20;99.90;;;;;;4982004;28;20050;-86
2022/02/18 07:42:43;;;;;;;19.77;4.40;;;7.20;99.90;;;;;;4997788;28;20440;-85
2022/02/18 07:45:12;;;;;;;20.00;4.67;;;7.30;99.90;;;;;;4997741;28;20030;-84
2022/02/18 07:47:38;;;;;;;18.03;4.47;;;7.40;99.90;;;;;;4999590;28;20464;-84
2022/02/18 07:50:04;;;;;;;22.40;4.47;;;7.40;99.90;;;;;;5001490;28;20036;-84
2022/02/18 07:52:30;;;;;;;23.60;4.50;;;7.50;99.90;;;;;;4999955;28;20030;-86
2022/02/18 07:54:56;;;;;;;16.07;3.10;;;7.50;99.90;;;;;;4980804;28;20026;-85
2022/02/18 07:57:25;;;;;;;18.63;4.07;;;7.60;99.90;;;;;;4995143;28;20105;-76
2022/02/18 07:59:51;;;;;;;18.17;3.87;;;7.60;99.90;;;;;;4979691;28;20121;-76
2022/02/18 08:02:17;;;;;;;16.43;3.83;;;7.70;99.90;;;;;;4999679;28;20022;-84
2022/02/18 08:04:43;;;;;;;18.07;3.90;;;7.80;99.90;;;;;;4999442;28;20029;-84
2022/02/18 08:07:08;;;;;;;24.87;4.20;;;7.80;99.90;;;;;;5016684;28;20451;-86
2022/02/18 08:09:34;;;;;;;20.20;4.37;;;7.90;99.90;;;;;;4998648;28;20514;-87
2022/02/18 08:12:00;;;;;;;12.83;3.57;;;7.90;99.90;;;;;;5016367;28;20033;-86
2022/02/18 08:14:26;;;;;;;14.40;3.70;;;7.90;99.90;;;;;;5017051;28;20030;-86
2022/02/18 08:16:52;;;;;;;14.13;3.17;;;8.00;99.90;;;;;;5017155;28;20034;-86
2022/02/18 08:19:21;;;;;;;19.50;5.20;;;8.00;99.90;;;;;;5016853;28;20026;-86
2022/02/18 08:21:52;;;;;;;21.83;3.90;;;8.10;99.90;;;;;;5016444;28;20071;-86
2022/02/18 08:24:19;;;;;;;14.23;3.23;;;8.10;99.90;;;;;;5014885;28;20036;-86
2022/02/18 08:26:46;;;;;;;11.50;3.00;;;8.20;99.90;;;;;;5016083;28;20510;-86
2022/02/18 08:29:12;;;;;;;14.17;2.90;;;8.30;99.90;;;;;;5015261;28;20034;-87
2022/02/18 08:31:37;;;;;;;15.33;3.20;;;8.40;99.90;;;;;;4997933;28;20085;-86
2022/02/18 08:34:03;;;;;;;14.37;3.23;;;8.50;99.90;;;;;;5015364;28;20746;-85
2022/02/18 08:36:28;;;;;;;11.20;2.53;;;8.50;99.90;;;;;;5016067;28;20390;-84
2022/02/18 08:38:57;;;;;;;11.47;2.30;;;8.50;99.90;;;;;;4995839;28;20524;-85
2022/02/18 08:41:23;;;;;;;15.10;3.13;;;8.60;99.90;;;;;;4984742;28;20026;-84
2022/02/18 08:43:49;;;;;;;9.83;2.43;;;8.60;99.90;;;;;;4977211;28;20089;-84
2022/02/18 08:46:15;;;;;;;13.83;3.30;;;8.60;99.90;;;;;;4984871;28;20030;-85
2022/02/18 08:48:41;;;;;;;13.83;3.60;;;8.60;99.90;;;;;;4983723;28;20031;-85
2022/02/18 08:51:06;;;;;;;11.73;2.87;;;8.60;99.90;;;;;;4988219;28;20084;-85
2022/02/18 08:53:32;;;;;;;11.20;3.20;;;8.60;99.90;;;;;;4981776;28;20030;-85
2022/02/18 08:55:59;;;;;;;11.17;2.53;;;8.60;99.90;;;;;;4986573;28;20746;-79
2022/02/18 08:58:26;;;;;;;10.53;2.63;;;8.60;99.90;;;;;;4984115;28;20104;-76
2022/02/18 09:00:52;;;;;;;9.33;2.33;;;8.70;99.90;;;;;;4988226;28;20066;-76
2022/02/18 09:03:18;;;;;;;11.50;2.90;;;8.70;99.90;;;;;;4986956;28;20080;-76
2022/02/18 09:05:43;;;;;;;10.07;2.47;;;8.80;99.90;;;;;;4987179;28;20038;-76
2022/02/18 09:08:09;;;;;;;11.17;3.10;;;8.80;99.90;;;;;;4986736;28;20026;-76
2022/02/18 09:10:35;;;;;;;10.80;2.73;;;8.90;99.90;;;;;;4989582;28;20352;-76
2022/02/18 09:13:00;;;;;;;7.53;2.20;;;9.00;99.90;;;;;;4989251;28;20030;-76
2022/02/18 09:15:26;;;;;;;17.20;3.33;;;9.10;99.90;;;;;;4994014;28;20051;-76
2022/02/18 09:17:51;;;;;;;8.93;2.90;;;9.10;99.90;;;;;;4994475;28;20034;-76
2022/02/18 09:20:17;;;;;;;10.53;2.53;;;9.20;99.90;;;;;;4978877;28;20038;-76
2022/02/18 09:22:43;;;;;;;12.97;2.70;;;9.30;99.90;;;;;;4974609;28;20063;-76
2022/02/18 09:25:09;;;;;;;9.60;2.30;;;9.40;99.90;;;;;;4983713;28;20399;-82
2022/02/18 09:27:34;;;;;;;8.90;2.30;;;9.50;99.90;;;;;;4990401;28;20041;-82
2022/02/18 09:30:02;;;;;;;8.80;2.57;;;9.60;99.90;;;;;;5000004;28;20535;-82
2022/02/18 09:32:28;;;;;;;7.80;2.40;;;9.60;99.90;;;;;;5013897;28;20399;-82
2022/02/18 09:34:53;;;;;;;9.70;2.40;;;9.70;99.90;;;;;;4990004;28;20038;-82
2022/02/18 09:37:19;;;;;;;7.93;2.13;;;9.80;99.90;;;;;;4975395;28;20530;-82
2022/02/18 09:39:45;;;;;;;10.20;3.20;;;9.90;99.90;;;;;;5001233;28;20188;-82
2022/02/18 09:42:14;;;;;;;6.80;2.13;;;9.90;99.90;;;;;;4991723;28;20418;-82
2022/02/18 09:44:43;;;;;;;9.40;2.90;;;10.00;99.90;;;;;;5020400;28;20022;-83
2022/02/18 09:47:12;;;;;;;8.33;2.30;;;10.00;99.90;;;;;;5002910;28;20041;-83
2022/02/18 09:49:40;;;;;;;7.00;1.90;;;10.10;99.90;;;;;;4994587;28;20040;-83
2022/02/18 09:52:07;;;;;;;6.80;2.33;;;10.20;99.90;;;;;;5009102;28;20498;-83
2022/02/18 09:54:33;;;;;;;5.53;2.20;;;10.20;99.90;;;;;;5010193;28;20053;-83
2022/02/18 09:57:00;;;;;;;7.70;2.40;;;10.30;99.90;;;;;;5009144;28;20037;-83
2022/02/18 09:59:27;;;;;;;7.20;2.30;;;10.30;99.90;;;;;;5008213;28;20735;-82
2022/02/18 10:01:53;;;;;;;15.07;2.90;;;10.40;99.90;;;;;;5009112;28;20776;-83
2022/02/18 10:04:18;;;;;;;16.60;2.83;;;10.40;99.90;;;;;;5008520;28;20049;-82
2022/02/18 10:06:44;;;;;;;9.67;2.50;;;10.50;99.90;;;;;;5009039;28;20030;-82
2022/02/18 10:09:09;;;;;;;7.28;2.13;;;10.50;99.90;;;;;;5008193;28;20030;-82
2022/02/18 10:11:55;;;;;;;12.00;2.53;;;10.60;99.90;;;;;;4989894;28;20056;-82
2022/02/18 10:14:20;;;;;;;8.95;2.53;;;10.60;99.90;;;;;;5006911;28;20137;-83
2022/02/18 10:16:48;;;;;;;9.02;2.15;;;10.70;99.90;;;;;;5008047;28;20562;-83
2022/02/18 10:19:14;;;;;;;7.00;1.98;;;10.80;99.90;;;;;;4990251;28;20394;-82
2022/02/18 10:21:44;;;;;;;7.35;2.08;;;10.80;99.90;;;;;;5008100;28;20096;-82
2022/02/18 10:24:15;;;;;;;6.85;2.15;;;10.80;99.90;;;;;;5007890;28;20496;-82
2022/02/18 10:26:46;;;;;;;8.83;2.30;;;10.90;99.90;;;;;;4989379;28;20044;-83
2022/02/18 10:29:25;;;;;;;12.07;2.42;;;10.90;99.90;;;;;;5007740;28;20764;-82
2022/02/18 10:32:12;;;;;;;8.40;2.27;;;10.90;99.90;;;;;;5008072;28;20049;-81
2022/02/18 10:34:58;;;;;;;15.40;2.70;;;11.00;99.90;;;;;;5007712;28;20025;-81
2022/02/18 10:37:25;;;;;;;10.93;2.72;;;11.20;99.90;;;;;;5007632;28;20129;-81
2022/02/18 10:40:08;;;;;;;9.13;2.25;;;11.20;99.90;;;;;;5008316;28;20528;-81
2022/02/18 10:42:34;;;;;;;10.30;2.10;;;11.40;99.90;;;;;;5008969;28;20053;-81
2022/02/18 10:45:08;;;;;;;9.52;1.45;;;11.60;99.90;;;;;;5007788;28;20053;-82
2022/02/18 10:47:34;;;;;;;7.18;2.35;;;11.70;99.90;;;;;;4993611;28;20676;-82
2022/02/18 10:50:00;;;;;;;9.98;3.03;;;11.80;99.90;;;;;;4998268;28;20037;-82
2022/02/18 10:52:27;;;;;;;10.48;2.00;;;11.80;99.90;;;;;;4972016;28;20109;-82
2022/02/18 10:54:53;;;;;;;9.18;2.42;;;11.90;99.90;;;;;;5003701;28;20557;-81
2022/02/18 10:57:24;;;;;;;6.50;1.77;;;11.90;99.90;;;;;;5008302;28;20025;-81
2022/02/18 10:59:52;;;;;;;7.57;1.63;;;11.90;99.90;;;;;;5007637;28;20124;-81
2022/02/18 11:02:39;;;;;;;6.18;1.70;;;11.90;99.90;;;;;;4990307;28;20037;-82
2022/02/18 11:05:30;;;;;;;7.82;2.05;;;12.00;99.90;;;;;;5007288;28;20037;-71
2022/02/18 11:07:56;;;;;;;6.45;1.83;;;12.10;99.90;;;;;;5009700;28;20034;-82
2022/02/18 11:10:34;;;;;;;9.70;2.17;;;12.00;99.90;;;;;;5010985;28;20430;-81
2022/02/18 11:12:59;;;;;;;5.40;2.00;;;12.00;99.90;;;;;;5011264;28;20114;-82
2022/02/18 11:15:26;;;;;;;7.55;1.73;;;12.00;99.90;;;;;;5011383;28;20021;-82
2022/02/18 11:17:53;;;;;;;3.25;1.65;;;12.00;99.90;;;;;;5010833;28;20079;-82
2022/02/18 11:20:19;;;;;;;7.68;1.80;;;12.00;99.90;;;;;;5011196;28;20029;-82
2022/02/18 11:22:46;;;;;;;7.32;1.98;;;12.00;99.90;;;;;;5011152;28;20053;-82
2022/02/18 11:25:12;;;;;;;7.60;1.95;;;12.00;99.90;;;;;;5011326;28;20030;-82
2022/02/18 11:27:39;;;;;;;9.48;2.10;;;12.00;99.90;;;;;;5010660;28;20030;-82
2022/02/18 11:30:07;;;;;;;6.00;1.88;;;12.00;99.90;;;;;;5010512;28;20034;-82
2022/02/18 11:32:41;;;;;;;5.75;1.98;;;12.10;99.90;;;;;;5010850;28;20022;-82
2022/02/18 11:35:44;;;;;;;7.70;1.88;;;12.20;99.90;;;;;;5011895;28;20017;-75
2022/02/18 11:38:31;;;;;;;8.52;2.28;;;12.10;99.90;;;;;;5014850;28;20412;-75
2022/02/18 11:41:05;;;;;;;10.02;1.88;;;12.20;99.90;;;;;;5014341;28;20132;-75
2022/02/18 11:43:42;;;;;;;9.55;2.13;;;12.10;99.90;;;;;;5014278;28;20470;-75
2022/02/18 11:46:08;;;;;;;5.68;1.90;;;12.10;99.90;;;;;;5014047;28;20435;-75
2022/02/18 11:48:44;;;;;;;10.30;1.77;;;12.10;99.90;;;;;;5014160;28;20032;-75
2022/02/18 11:51:16;;;;;;;8.00;2.25;;;12.00;99.90;;;;;;5014147;28;20439;-75
2022/02/18 11:53:47;;;;;;;8.52;1.95;;;12.00;99.90;;;;;;5013795;28;20101;-75
2022/02/18 11:56:17;;;;;;;7.75;1.90;;;12.00;99.90;;;;;;5013869;28;20029;-74
2022/02/18 11:59:00;;;;;;;8.73;2.00;;;12.00;99.90;;;;;;5013671;28;20053;-74
2022/02/18 12:01:48;;;;;;;8.80;2.05;;;11.90;99.90;;;;;;5012000;28;20435;-82
2022/02/18 12:04:19;;;;;;;4.80;1.60;;;12.00;99.90;;;;;;5011400;28;20058;-81
2022/02/18 12:07:20;;;;;;;8.35;2.08;;;12.00;99.90;;;;;;5005332;28;20387;-82
2022/02/18 12:09:51;;;;;;;10.02;1.85;;;12.00;99.90;;;;;;5007504;28;20026;-81
2022/02/18 12:12:23;;;;;;;4.43;1.60;;;12.10;99.90;;;;;;5009914;28;20116;-81
2022/02/18 12:14:55;;;;;;;8.35;1.90;;;12.00;99.90;;;;;;5011177;28;20026;-82
2022/02/18 12:17:22;;;;;;;8.32;1.67;;;12.10;99.90;;;;;;5006656;28;20018;-81
2022/02/18 12:19:48;;;;;;;5.80;2.22;;;12.10;99.90;;;;;;5007272;28;20044;-81
2022/02/18 12:22:13;;;;;;;10.93;2.20;;;12.20;99.90;;;;;;5006787;28;20045;-81
2022/02/18 12:24:44;;;;;;;10.50;1.70;;;12.20;99.90;;;;;;5007361;28;20117;-80
2022/02/18 12:27:19;;;;;;;11.23;2.05;;;12.20;99.90;;;;;;4989318;28;20037;-80
2022/02/18 12:29:46;;;;;;;8.63;1.55;;;12.30;99.90;;;;;;5006592;28;20095;-82
2022/02/18 12:32:13;;;;;;;11.63;2.00;;;12.30;99.90;;;;;;5006833;28;20506;-81
2022/02/18 12:34:41;;;;;;;4.47;1.30;;;12.30;99.90;;;;;;5004697;28;20052;-81
2022/02/18 12:37:07;;;;;;;10.55;1.85;;;12.40;99.90;;;;;;5000289;28;20112;-81
2022/02/18 12:39:41;;;;;;;3.47;1.40;;;12.40;99.90;;;;;;5005231;28;20120;-81
2022/02/18 12:42:15;;;;;;;8.38;1.73;;;12.50;99.90;;;;;;5004407;28;20387;-81
2022/02/18 12:45:00;;;;;;;6.18;1.73;;;12.60;99.90;;;;;;5005535;28;20105;-82